createdAt,value
2024-04-13T00:00:27.745Z,98071.28
2024-04-13T00:06:35.863Z,98074.03
2024-04-13T00:09:05.048Z,98066.59
2024-04-13T00:11:43.191Z,98069.91
2024-04-13T00:14:09.940Z,98060.50
2024-04-13T00:16:36.724Z,98046.13
2024-04-13T00:19:03.542Z,98062.47
2024-04-13T00:21:30.481Z,98062.16
2024-04-13T00:23:57.306Z,98070.59
2024-04-13T00:26:53.979Z,98073.09
2024-04-13T00:29:20.819Z,98062.84
2024-04-13T00:31:50.608Z,98055.53
2024-04-13T00:34:17.360Z,98056.09
2024-04-13T00:36:45.149Z,98068.94
2024-04-13T00:39:12.887Z,98053.06
2024-04-13T00:45:44.072Z,98054.00
2024-04-13T00:51:53.817Z,98052.50
2024-04-13T00:54:25.002Z,98063.13
2024-04-13T00:56:54.624Z,98055.69
2024-04-13T00:59:26.318Z,98054.84
2024-04-13T01:05:40.402Z,98039.63
2024-04-13T01:08:07.092Z,98036.47
2024-04-13T01:10:33.907Z,98034.38
2024-04-13T01:13:00.673Z,98047.34
2024-04-13T01:15:29.371Z,98034.75
2024-04-13T01:17:56.181Z,98045.84
2024-04-13T01:21:14.162Z,98056.31
2024-04-13T01:23:45.911Z,98060.34
2024-04-13T01:26:20.937Z,98057.56
2024-04-13T01:28:48.456Z,98053.97
2024-04-13T01:31:21.759Z,98059.84
2024-04-13T01:33:48.585Z,98052.66
2024-04-13T01:36:18.490Z,98056.53
2024-04-13T01:38:45.620Z,98074.16
2024-04-13T01:41:12.327Z,98049.19
2024-04-13T01:43:39.052Z,98046.81
2024-04-13T01:46:07.037Z,98070.34
2024-04-13T01:48:41.008Z,98067.34
2024-04-13T01:51:07.823Z,98072.75
2024-04-13T01:53:34.551Z,98076.66
2024-04-13T01:56:01.320Z,98087.94
2024-04-13T01:58:28.428Z,98080.44
2024-04-13T02:01:05.404Z,98074.97
2024-04-13T02:03:32.119Z,98077.09
2024-04-13T02:06:04.472Z,98066.56
2024-04-13T02:08:34.251Z,98077.47
2024-04-13T02:11:01.945Z,98076.03
2024-04-13T02:13:31.421Z,98066.84
2024-04-13T02:15:58.087Z,98081.31
2024-04-13T02:18:27.165Z,98089.28
2024-04-13T02:20:54.056Z,98097.03
2024-04-13T02:23:20.843Z,98087.78
2024-04-13T02:25:48.166Z,98088.34
2024-04-13T02:28:15.614Z,98078.38
2024-04-13T02:30:43.101Z,98065.38
2024-04-13T02:33:10.139Z,98084.72
2024-04-13T02:35:39.439Z,98083.94
2024-04-13T02:38:06.189Z,98084.97
2024-04-13T02:40:33.317Z,98096.41
2024-04-13T02:43:02.137Z,98089.63
2024-04-13T02:45:28.768Z,98084.13
2024-04-13T02:47:55.769Z,98085.66
2024-04-13T02:50:22.651Z,98075.81
2024-04-13T02:52:49.896Z,98065.66
2024-04-13T02:55:16.826Z,98069.69
2024-04-13T02:57:45.122Z,98071.31
2024-04-13T03:00:13.449Z,98075.78
2024-04-13T03:02:40.346Z,98088.97
2024-04-13T03:05:24.284Z,98079.63
2024-04-13T03:07:50.999Z,98082.03
2024-04-13T03:10:17.787Z,98074.13
2024-04-13T03:12:44.469Z,98076.97
2024-04-13T03:15:14.122Z,98074.91
2024-04-13T03:17:41.393Z,98061.38
2024-04-13T03:20:33.995Z,98081.03
2024-04-13T03:23:00.672Z,98064.53
2024-04-13T03:25:29.973Z,98078.84
2024-04-13T03:27:57.230Z,98079.66
2024-04-13T03:30:25.312Z,98078.00
2024-04-13T03:32:52.150Z,98077.09
2024-04-13T03:35:18.880Z,98070.53
2024-04-13T03:37:48.776Z,98059.56
2024-04-13T03:40:15.723Z,98072.53
2024-04-13T03:42:45.668Z,98058.81
2024-04-13T03:45:12.459Z,98058.97
2024-04-13T03:47:39.447Z,98062.47
2024-04-13T03:50:07.778Z,98074.78
2024-04-13T03:52:34.766Z,98065.28
2024-04-13T03:55:01.482Z,98071.00
2024-04-13T03:57:28.242Z,98075.47
2024-04-13T03:59:56.112Z,98071.78
2024-04-13T04:02:22.944Z,98062.06
2024-04-13T04:04:49.542Z,98081.44
2024-04-13T04:07:16.288Z,98069.91
2024-04-13T04:09:43.066Z,98068.84
2024-04-13T04:12:10.863Z,98085.59
2024-04-13T04:14:40.207Z,98071.56
2024-04-13T04:17:09.111Z,98080.50
2024-04-13T04:19:37.023Z,98085.63
2024-04-13T04:22:03.769Z,98067.50
2024-04-13T04:24:31.044Z,98068.91
2024-04-13T04:26:57.793Z,98083.28
2024-04-13T04:29:24.516Z,98079.75
2024-04-13T04:31:51.444Z,98081.88
2024-04-13T04:34:18.303Z,98060.66
2024-04-13T04:36:45.079Z,98079.50
2024-04-13T04:39:11.945Z,98090.91
2024-04-13T04:41:47.028Z,98090.34
2024-04-13T04:44:14.795Z,98087.34
2024-04-13T04:46:43.503Z,98084.22
2024-04-13T04:49:11.909Z,98082.31
2024-04-13T04:51:40.279Z,98075.28
2024-04-13T04:54:06.993Z,98092.22
2024-04-13T04:56:33.875Z,98069.81
2024-04-13T04:59:00.859Z,98059.41
2024-04-13T05:01:38.821Z,98082.91
2024-04-13T05:04:10.874Z,98048.94
2024-04-13T05:06:37.731Z,98087.59
2024-04-13T05:09:06.459Z,98089.44
2024-04-13T05:11:35.410Z,98056.84
2024-04-13T05:14:02.109Z,98087.63
2024-04-13T05:16:28.820Z,98083.25
2024-04-13T05:18:56.709Z,98083.13
2024-04-13T05:21:23.442Z,98076.59
2024-04-13T05:23:50.200Z,98074.50
2024-04-13T05:26:16.831Z,98081.97
2024-04-13T05:28:43.654Z,98084.88
2024-04-13T05:31:10.958Z,98083.69
2024-04-13T05:33:38.049Z,98074.00
2024-04-13T05:36:05.705Z,98080.53
2024-04-13T05:38:33.018Z,98074.19
2024-04-13T05:41:01.065Z,98072.53
2024-04-13T05:43:27.795Z,98072.63
2024-04-13T05:45:55.109Z,98095.06
2024-04-13T05:48:28.058Z,98094.47
2024-04-13T05:51:00.650Z,98088.75
2024-04-13T05:53:28.228Z,98098.81
2024-04-13T05:55:55.967Z,98093.53
2024-04-13T05:58:22.773Z,98090.81
2024-04-13T06:00:49.889Z,98099.38
2024-04-13T06:03:19.510Z,98091.09
2024-04-13T06:05:47.334Z,98088.03
2024-04-13T06:08:14.580Z,98090.91
2024-04-13T06:10:42.399Z,98072.50
2024-04-13T06:13:09.318Z,98089.06
2024-04-13T06:15:39.210Z,98068.56
2024-04-13T06:18:06.305Z,98073.84
2024-04-13T06:20:45.775Z,98084.91
2024-04-13T06:23:12.462Z,98091.75
2024-04-13T06:25:48.970Z,98085.78
2024-04-13T06:28:19.484Z,98081.84
2024-04-13T06:30:55.537Z,98079.97
2024-04-13T06:33:22.702Z,98074.81
2024-04-13T06:35:53.102Z,98081.38
2024-04-13T06:38:25.651Z,98084.50
2024-04-13T06:40:54.418Z,98083.19
2024-04-13T06:43:21.506Z,98084.03
2024-04-13T06:45:49.040Z,98082.00
2024-04-13T06:48:15.991Z,98072.78
2024-04-13T06:50:53.707Z,98068.63
2024-04-13T06:53:24.688Z,98076.28
2024-04-13T06:55:52.115Z,98072.16
2024-04-13T06:58:24.993Z,98075.44
2024-04-13T07:00:59.322Z,98090.31
2024-04-13T07:03:26.375Z,98076.09
2024-04-13T07:06:00.350Z,98079.09
2024-04-13T07:08:28.660Z,98071.56
2024-04-13T07:10:56.998Z,98075.16
2024-04-13T07:13:24.584Z,98074.47
2024-04-13T07:15:54.865Z,98070.00
2024-04-13T07:18:21.795Z,98073.34
2024-04-13T07:20:56.311Z,98067.53
2024-04-13T07:23:23.100Z,98077.78
2024-04-13T07:26:01.394Z,98058.69
2024-04-13T07:28:29.354Z,98074.19
2024-04-13T07:31:01.333Z,98081.47
2024-04-13T07:33:29.133Z,98078.47
2024-04-13T07:35:56.075Z,98078.09
2024-04-13T07:38:23.252Z,98074.78
2024-04-13T07:40:50.148Z,98060.63
2024-04-13T07:43:16.946Z,98075.41
2024-04-13T07:45:46.604Z,98073.56
2024-04-13T07:48:13.649Z,98068.00
2024-04-13T07:50:41.469Z,98072.81
2024-04-13T07:53:10.262Z,98064.50
2024-04-13T07:55:37.301Z,98074.47
2024-04-13T07:58:04.201Z,98060.59
2024-04-13T08:00:30.896Z,98052.47
2024-04-13T08:03:05.538Z,98052.31
2024-04-13T08:05:32.317Z,98068.53
2024-04-13T08:07:59.048Z,98065.69
2024-04-13T08:10:25.924Z,98065.31
2024-04-13T08:12:52.712Z,98066.69
2024-04-13T08:15:19.471Z,98068.94
2024-04-13T08:17:46.319Z,98059.22
2024-04-13T08:20:19.331Z,98061.63
2024-04-13T08:22:46.287Z,98065.19
2024-04-13T08:25:13.270Z,98056.41
2024-04-13T08:27:40.174Z,98057.03
2024-04-13T08:30:08.464Z,98052.31
2024-04-13T08:32:35.224Z,98049.13
2024-04-13T08:35:01.947Z,98046.81
2024-04-13T08:37:28.784Z,98044.50
2024-04-13T08:39:55.625Z,98043.53
2024-04-13T08:42:39.493Z,98041.34
2024-04-13T08:45:10.704Z,98029.44
2024-04-13T08:47:40.221Z,98021.38
2024-04-13T08:50:11.880Z,98032.97
2024-04-13T08:52:40.657Z,98026.72
2024-04-13T08:55:07.992Z,98014.00
2024-04-13T08:57:39.213Z,98013.34
2024-04-13T09:00:32.850Z,98032.13
2024-04-13T09:02:59.803Z,98021.19
2024-04-13T09:05:26.868Z,98019.88
2024-04-13T09:07:56.847Z,98019.66
2024-04-13T09:10:23.786Z,98014.53
2024-04-13T09:12:50.746Z,98008.31
2024-04-13T09:15:20.182Z,98009.94
2024-04-13T09:17:47.137Z,98001.56
2024-04-13T09:20:15.311Z,98010.59
2024-04-13T09:22:41.978Z,98021.63
2024-04-13T09:25:09.680Z,98019.41
2024-04-13T09:28:05.339Z,98009.41
2024-04-13T09:30:32.734Z,97999.81
2024-04-13T09:33:08.103Z,98007.59
2024-04-13T09:35:36.127Z,97997.66
2024-04-13T09:38:03.070Z,97997.16
2024-04-13T09:40:32.903Z,97987.47
2024-04-13T09:43:02.506Z,97987.25
2024-04-13T09:45:29.295Z,97987.63
2024-04-13T09:48:00.428Z,97974.31
2024-04-13T09:50:28.447Z,97969.06
2024-04-13T09:53:02.001Z,97968.69
2024-04-13T09:55:30.445Z,97966.06
2024-04-13T09:57:59.221Z,97958.63
2024-04-13T10:00:26.939Z,97957.28
2024-04-13T10:02:53.892Z,97940.81
2024-04-13T10:05:21.580Z,97932.81
2024-04-13T10:07:51.198Z,97940.03
2024-04-13T10:10:19.346Z,97941.06
2024-04-13T10:12:49.441Z,97938.91
2024-04-13T10:15:17.457Z,97938.91
2024-04-13T10:17:45.522Z,97936.31
2024-04-13T10:20:12.226Z,97938.69
2024-04-13T10:22:39.524Z,97925.22
2024-04-13T10:25:09.128Z,97928.13
2024-04-13T10:27:36.684Z,97913.78
2024-04-13T10:30:04.749Z,97921.78
2024-04-13T10:32:32.406Z,97910.41
2024-04-13T10:35:15.849Z,97910.22
2024-04-13T10:37:42.770Z,97897.69
2024-04-13T10:40:09.832Z,97913.06
2024-04-13T10:42:44.333Z,97902.25
2024-04-13T10:45:22.297Z,97908.38
2024-04-13T10:47:49.469Z,97890.50
2024-04-13T10:50:20.154Z,97893.59
2024-04-13T10:52:47.454Z,97889.59
2024-04-13T10:55:22.663Z,97903.91
2024-04-13T10:57:51.411Z,97881.41
2024-04-13T11:00:27.630Z,97866.16
2024-04-13T11:02:55.505Z,97882.41
2024-04-13T11:05:22.888Z,97868.28
2024-04-13T11:07:52.681Z,97875.75
2024-04-13T11:10:20.908Z,97853.97
2024-04-13T11:12:50.332Z,97868.59
2024-04-13T11:15:18.469Z,97852.41
2024-04-13T11:17:45.761Z,97845.31
2024-04-13T11:20:12.606Z,97848.06
2024-04-13T11:22:40.459Z,97849.38
2024-04-13T11:25:09.411Z,97833.91
2024-04-13T11:27:38.336Z,97839.88
2024-04-13T11:30:05.604Z,97832.56
2024-04-13T11:32:32.779Z,97840.84
2024-04-13T11:34:59.644Z,97841.66
2024-04-13T11:37:26.416Z,97831.88
2024-04-13T11:39:53.524Z,97831.25
2024-04-13T11:42:24.316Z,97828.28
2024-04-13T11:44:54.817Z,97826.00
2024-04-13T11:47:22.717Z,97830.66
2024-04-13T11:49:49.641Z,97813.13
2024-04-13T11:52:19.240Z,97802.97
2024-04-13T11:54:48.326Z,97810.16
2024-04-13T11:57:15.317Z,97809.06
2024-04-13T11:59:49.414Z,97795.22
2024-04-13T12:02:16.421Z,97802.94
2024-04-13T12:04:43.196Z,97818.28
2024-04-13T12:07:13.594Z,97784.72
2024-04-13T12:09:40.393Z,97814.28
2024-04-13T12:12:13.841Z,97819.50
2024-04-13T12:14:47.189Z,97807.03
2024-04-13T12:17:26.802Z,97791.53
2024-04-13T12:19:53.636Z,97802.22
2024-04-13T12:22:20.359Z,97792.31
2024-04-13T12:24:47.378Z,97795.47
2024-04-13T12:27:14.429Z,97787.97
2024-04-13T12:29:44.381Z,97778.38
2024-04-13T12:32:11.138Z,97771.22
2024-04-13T12:34:40.104Z,97771.44
2024-04-13T12:37:07.160Z,97766.53
2024-04-13T12:39:46.324Z,97772.91
2024-04-13T12:42:13.214Z,97765.91
2024-04-13T12:44:39.941Z,97752.19
2024-04-13T12:47:15.663Z,97756.94
2024-04-13T12:49:42.877Z,97757.34
2024-04-13T12:52:10.674Z,97737.78
2024-04-13T12:54:38.197Z,97738.84
2024-04-13T12:57:07.450Z,97736.75
2024-04-13T12:59:34.234Z,97742.28
2024-04-13T13:02:01.608Z,97733.69
2024-04-13T13:04:28.460Z,97733.72
2024-04-13T13:06:55.638Z,97718.25
2024-04-13T13:09:23.131Z,97722.34
2024-04-13T13:11:49.885Z,97725.69
2024-04-13T13:14:16.860Z,97720.38
2024-04-13T13:16:43.600Z,97710.53
2024-04-13T13:19:10.444Z,97705.88
2024-04-13T13:21:40.394Z,97699.31
2024-04-13T13:24:07.726Z,97714.41
2024-04-13T13:26:34.458Z,97685.78
2024-04-13T13:29:04.239Z,97708.19
2024-04-13T13:31:33.255Z,97703.44
2024-04-13T13:34:00.256Z,97687.72
2024-04-13T13:36:27.816Z,97691.44
2024-04-13T13:38:54.610Z,97688.94
2024-04-13T13:41:21.258Z,97671.53
2024-04-13T13:43:47.967Z,97677.44
2024-04-13T13:46:14.756Z,97675.75
2024-04-13T13:49:01.605Z,97672.06
2024-04-13T13:51:32.573Z,97661.22
2024-04-13T13:53:59.404Z,97653.06
2024-04-13T13:56:26.632Z,97664.72
2024-04-13T13:59:04.872Z,97660.59
2024-04-13T14:01:33.800Z,97655.38
2024-04-13T14:04:09.367Z,97654.16
2024-04-13T14:06:47.989Z,97643.53
2024-04-13T14:09:15.081Z,97627.19
2024-04-13T14:11:42.338Z,97625.56
2024-04-13T14:14:09.608Z,97632.63
2024-04-13T14:16:36.481Z,97640.59
2024-04-13T14:19:03.674Z,97636.44
2024-04-13T14:21:31.724Z,97628.38
2024-04-13T14:23:58.602Z,97630.03
2024-04-13T14:26:25.585Z,97642.16
2024-04-13T14:28:52.287Z,97621.47
2024-04-13T14:31:20.428Z,97611.19
2024-04-13T14:33:47.313Z,97617.56
2024-04-13T14:36:14.794Z,97613.50
2024-04-13T14:38:41.743Z,97584.84
2024-04-13T14:41:08.700Z,97604.16
2024-04-13T14:43:35.566Z,97612.28
2024-04-13T14:46:02.438Z,97595.28
2024-04-13T14:48:29.420Z,97599.34
2024-04-13T14:51:00.372Z,97586.72
2024-04-13T14:53:27.139Z,97585.38
2024-04-13T14:55:56.126Z,97592.28
2024-04-13T14:58:22.991Z,97579.66
2024-04-13T15:00:49.805Z,97590.16
2024-04-13T15:03:16.922Z,97573.38
2024-04-13T15:05:43.624Z,97583.09
2024-04-13T15:08:10.383Z,97573.47
2024-04-13T15:11:00.598Z,97572.50
2024-04-13T15:13:27.596Z,97574.59
2024-04-13T15:15:54.891Z,97572.19
2024-04-13T15:18:22.150Z,97566.00
2024-04-13T15:20:49.882Z,97568.84
2024-04-13T15:23:17.864Z,97555.41
2024-04-13T15:25:45.994Z,97568.38
2024-04-13T15:28:12.717Z,97563.13
2024-04-13T15:31:02.573Z,97565.00
2024-04-13T15:33:29.605Z,97559.75
2024-04-13T15:35:56.408Z,97528.84
2024-04-13T15:38:24.306Z,97524.63
2024-04-13T15:40:51.566Z,97524.66
2024-04-13T15:43:19.814Z,97544.22
2024-04-13T15:45:57.896Z,97545.09
2024-04-13T15:48:25.975Z,97544.47
2024-04-13T15:50:52.662Z,97543.91
2024-04-13T15:53:20.301Z,97538.34
2024-04-13T15:55:47.520Z,97524.72
2024-04-13T15:58:14.775Z,97520.50
2024-04-13T16:00:41.687Z,97529.72
2024-04-13T16:03:09.475Z,97532.97
2024-04-13T16:05:44.534Z,97533.22
2024-04-13T16:08:11.292Z,97529.91
2024-04-13T16:10:38.039Z,97528.38
2024-04-13T16:13:04.990Z,97517.22
2024-04-13T16:15:32.064Z,97513.22
2024-04-13T16:17:58.795Z,97524.47
2024-04-13T16:20:26.216Z,97504.78
2024-04-13T16:22:53.151Z,97513.22
2024-04-13T16:25:20.005Z,97486.97
2024-04-13T16:27:51.157Z,97494.03
2024-04-13T16:30:17.863Z,97526.09
2024-04-13T16:32:44.616Z,97509.69
2024-04-13T16:35:11.519Z,97518.47
2024-04-13T16:37:38.347Z,97522.88
2024-04-13T16:40:05.418Z,97517.44
2024-04-13T16:42:32.289Z,97518.63
2024-04-13T16:44:58.984Z,97524.13
2024-04-13T16:47:25.748Z,97503.16
2024-04-13T16:49:55.697Z,97499.19
2024-04-13T16:52:22.492Z,97489.31
2024-04-13T16:54:49.351Z,97493.59
2024-04-13T16:57:16.182Z,97495.44
2024-04-13T16:59:43.019Z,97500.84
2024-04-13T17:02:09.808Z,97479.69
2024-04-13T17:04:36.723Z,97499.84
2024-04-13T17:07:03.637Z,97493.91
2024-04-13T17:09:32.467Z,97498.03
2024-04-13T17:11:59.363Z,97493.88
2024-04-13T17:14:26.217Z,97494.59
2024-04-13T17:16:53.061Z,97497.53
2024-04-13T17:19:19.898Z,97497.84
2024-04-13T17:21:48.073Z,97483.41
2024-04-13T17:24:14.858Z,97488.63
2024-04-13T17:26:41.858Z,97480.22
2024-04-13T17:29:10.739Z,97487.66
2024-04-13T17:31:37.529Z,97484.97
2024-04-13T17:34:04.241Z,97491.44
2024-04-13T17:36:31.006Z,97463.91
2024-04-13T17:38:57.800Z,97478.16
2024-04-13T17:41:24.899Z,97486.31
2024-04-13T17:43:51.615Z,97490.66
2024-04-13T17:46:18.441Z,97466.19
2024-04-13T17:48:45.179Z,97477.38
2024-04-13T17:51:11.948Z,97479.88
2024-04-13T17:53:38.679Z,97476.59
2024-04-13T17:56:05.805Z,97472.22
2024-04-13T17:58:32.591Z,97479.72
2024-04-13T18:00:59.470Z,97481.72
2024-04-13T18:03:26.384Z,97474.41
2024-04-13T18:05:53.107Z,97472.69
2024-04-13T18:08:19.936Z,97464.34
2024-04-13T18:10:46.725Z,97477.75
2024-04-13T18:13:13.420Z,97460.09
2024-04-13T18:15:40.189Z,97483.72
2024-04-13T18:18:09.434Z,97478.47
2024-04-13T18:20:36.202Z,97480.41
2024-04-13T18:23:03.057Z,97476.91
2024-04-13T18:25:29.780Z,97474.91
2024-04-13T18:27:56.682Z,97475.41
2024-04-13T18:30:23.783Z,97484.84
2024-04-13T18:32:50.737Z,97473.44
2024-04-13T18:35:17.575Z,97471.00
2024-04-13T18:37:44.404Z,97478.16
2024-04-13T18:40:11.303Z,97481.50
2024-04-13T18:42:38.231Z,97470.28
2024-04-13T18:45:06.426Z,97486.03
2024-04-13T18:47:33.341Z,97477.66
2024-04-13T18:50:01.206Z,97469.47
2024-04-13T18:52:31.310Z,97468.06
2024-04-13T18:54:58.788Z,97477.69
2024-04-13T18:57:25.512Z,97478.47
2024-04-13T18:59:52.222Z,97478.06
2024-04-13T19:02:19.024Z,97473.00
2024-04-13T19:04:45.858Z,97479.88
2024-04-13T19:07:12.687Z,97488.47
2024-04-13T19:09:39.472Z,97485.84
2024-04-13T19:12:06.592Z,97481.75
2024-04-13T19:14:45.401Z,97492.28
2024-04-13T19:17:12.149Z,97461.28
2024-04-13T19:19:38.995Z,97476.31
2024-04-13T19:22:06.848Z,97463.66
2024-04-13T19:24:33.584Z,97477.59
2024-04-13T19:27:00.962Z,97465.91
2024-04-13T19:29:28.191Z,97466.53
2024-04-13T19:31:54.933Z,97477.75
2024-04-13T19:34:21.680Z,97474.00
2024-04-13T19:36:49.214Z,97470.84
2024-04-13T19:39:15.962Z,97462.16
2024-04-13T19:41:44.444Z,97478.63
2024-04-13T19:44:11.748Z,97480.59
2024-04-13T19:46:40.502Z,97467.38
2024-04-13T19:49:07.416Z,97465.59
2024-04-13T19:51:35.314Z,97465.88
2024-04-13T19:54:28.271Z,97474.72
2024-04-13T19:56:54.999Z,97457.34
2024-04-13T19:59:21.738Z,97465.66
2024-04-13T20:01:56.253Z,97465.00
2024-04-13T20:04:23.070Z,97466.00
2024-04-13T20:06:50.002Z,97456.78
2024-04-13T20:09:16.869Z,97467.28
2024-04-13T20:11:43.678Z,97457.28
2024-04-13T20:14:15.474Z,97456.09
2024-04-13T20:17:00.581Z,97451.59
2024-04-13T20:19:27.477Z,97453.16
2024-04-13T20:21:56.178Z,97456.59
2024-04-13T20:24:23.137Z,97435.38
2024-04-13T20:26:49.987Z,97451.75
2024-04-13T20:29:18.781Z,97443.00
2024-04-13T20:31:45.561Z,97437.63
2024-04-13T20:34:12.875Z,97448.28
2024-04-13T20:36:54.831Z,97445.81
2024-04-13T20:39:21.596Z,97434.31
2024-04-13T20:41:49.685Z,97427.78
2024-04-13T20:44:16.413Z,97424.13
2024-04-13T20:46:43.414Z,97429.78
2024-04-13T20:49:15.342Z,97429.25
2024-04-13T20:51:42.098Z,97425.22
2024-04-13T20:54:08.820Z,97424.41
2024-04-13T20:56:35.541Z,97421.94
2024-04-13T20:59:04.421Z,97423.97
2024-04-13T21:01:32.286Z,97399.00
2024-04-13T21:04:08.427Z,97418.94
2024-04-13T21:06:35.920Z,97412.13
2024-04-13T21:09:03.685Z,97417.22
2024-04-13T21:11:30.785Z,97421.03
2024-04-13T21:13:58.849Z,97408.81
2024-04-13T21:16:25.736Z,97412.31
2024-04-13T21:18:52.580Z,97413.59
2024-04-13T21:21:21.589Z,97386.78
2024-04-13T21:23:50.471Z,97409.66
2024-04-13T21:26:17.321Z,97397.53
2024-04-13T21:28:44.244Z,97400.91
2024-04-13T21:31:11.030Z,97385.22
2024-04-13T21:33:37.840Z,97382.94
2024-04-13T21:36:05.424Z,97380.38
2024-04-13T21:38:32.269Z,97397.78
2024-04-13T21:41:00.112Z,97385.94
2024-04-13T21:43:27.153Z,97393.16
2024-04-13T21:45:54.384Z,97385.97
2024-04-13T21:48:23.706Z,97372.66
2024-04-13T21:54:56.964Z,97377.63
2024-04-13T21:57:23.912Z,97356.66
2024-04-13T21:59:50.702Z,97357.47
2024-04-13T22:02:17.646Z,97373.94
2024-04-13T22:04:44.644Z,97372.38
2024-04-13T22:07:12.896Z,97369.38
2024-04-13T22:09:39.651Z,97376.88
2024-04-13T22:12:07.388Z,97377.88
2024-04-13T22:14:39.663Z,97358.47
2024-04-13T22:17:06.521Z,97362.28
2024-04-13T22:19:34.710Z,97370.13
2024-04-13T22:22:14.523Z,97387.59
2024-04-13T22:24:41.279Z,97374.72
2024-04-13T22:27:07.997Z,97387.59
2024-04-13T22:29:35.325Z,97385.28
2024-04-13T22:32:01.993Z,97375.78
2024-04-13T22:34:54.629Z,97378.28
2024-04-13T22:37:21.416Z,97377.22
2024-04-13T22:39:48.280Z,97375.34
2024-04-13T22:42:15.013Z,97371.25
2024-04-13T22:44:41.734Z,97379.50
2024-04-13T22:47:08.458Z,97373.75
2024-04-13T22:49:35.368Z,97379.50
2024-04-13T22:52:08.384Z,97378.19
2024-04-13T22:54:35.192Z,97376.75
2024-04-13T22:57:01.964Z,97382.69
2024-04-13T22:59:28.722Z,97387.84
2024-04-13T23:01:55.473Z,97376.59
2024-04-13T23:04:22.569Z,97397.16
2024-04-13T23:06:49.640Z,97386.16
2024-04-13T23:09:18.521Z,97386.69
2024-04-13T23:11:47.402Z,97383.59
2024-04-13T23:14:14.187Z,97382.94
2024-04-13T23:16:40.954Z,97366.69
2024-04-13T23:19:07.796Z,97371.97
2024-04-13T23:21:37.188Z,97382.50
2024-04-13T23:24:04.187Z,97373.78
2024-04-13T23:26:30.958Z,97369.84
2024-04-13T23:28:57.710Z,97374.25
2024-04-13T23:31:25.453Z,97375.94
2024-04-13T23:33:52.195Z,97368.00
2024-04-13T23:36:18.975Z,97369.59
2024-04-13T23:38:45.945Z,97365.44
2024-04-13T23:41:12.805Z,97359.88
2024-04-13T23:43:39.513Z,97365.19
2024-04-13T23:46:07.945Z,97342.19
2024-04-13T23:48:34.758Z,97351.44
2024-04-13T23:51:11.792Z,97362.22
2024-04-13T23:53:41.299Z,97335.63
2024-04-13T23:56:15.193Z,97351.75
2024-04-13T23:58:41.878Z,97338.28
